createdAt,value
2019-04-23T00:03:08.573Z,79.20
2019-04-23T00:05:48.168Z,79.40
2019-04-23T00:08:23.245Z,79.90
2019-04-23T00:10:56.743Z,79.90
2019-04-23T00:13:24.571Z,80.50
2019-04-23T00:16:12.852Z,80.60
2019-04-23T00:21:40.534Z,81.60
2019-04-23T00:24:53.489Z,81.70
2019-04-23T00:27:16.318Z,82.20
2019-04-23T00:29:48.434Z,82.70
2019-04-23T00:32:15.628Z,83.20
2019-04-23T00:34:47.629Z,83.80
2019-04-23T00:37:25.675Z,84.10
2019-04-23T00:39:52.857Z,84.10
2019-04-23T00:42:31.497Z,84.40
2019-04-23T00:44:56.385Z,85.00
2019-04-23T00:47:45.030Z,84.90
2019-04-23T00:50:20.743Z,85.10
2019-04-23T00:52:50.216Z,85.60
2019-04-23T00:55:19.058Z,85.50
2019-04-23T00:57:43.958Z,86.00
2019-04-23T01:02:52.889Z,86.80
2019-04-23T01:05:24.842Z,87.40
2019-04-23T01:07:58.118Z,87.70
2019-04-23T01:10:45.940Z,87.80
2019-04-23T01:13:25.130Z,88.50
2019-04-23T01:15:53.674Z,88.80
2019-04-23T01:18:38.172Z,89.20
2019-04-23T01:20:53.590Z,89.10
2019-04-23T01:23:37.787Z,89.20
2019-04-23T01:26:26.378Z,89.70
2019-04-23T01:29:01.629Z,90.00
2019-04-23T01:31:34.640Z,90.20
2019-04-23T01:34:13.484Z,90.20
2019-04-23T01:36:42.933Z,90.50
2019-04-23T01:41:47.544Z,90.70
2019-04-23T01:44:34.196Z,90.80
2019-04-23T01:46:54.221Z,90.80
2019-04-23T01:49:53.946Z,90.90
2019-04-23T01:52:02.405Z,91.20
2019-04-23T01:54:38.880Z,91.30
2019-04-23T01:57:09.664Z,91.50
2019-04-23T01:59:39.021Z,91.50
2019-04-23T02:02:19.341Z,92.00
2019-04-23T02:04:55.743Z,91.90
2019-04-23T02:07:29.960Z,92.30
2019-04-23T02:10:07.209Z,92.40
2019-04-23T02:12:35.823Z,92.50
2019-04-23T02:15:03.664Z,92.60
2019-04-23T02:17:38.723Z,92.70
2019-04-23T02:20:19.270Z,93.00
2019-04-23T02:28:19.904Z,93.10
2019-04-23T02:31:15.417Z,93.10
2019-04-23T02:33:35.877Z,93.40
2019-04-23T02:36:02.480Z,93.60
2019-04-23T02:41:26.706Z,93.90
2019-04-23T02:43:37.048Z,93.90
2019-04-23T02:46:09.824Z,94.10
2019-04-23T02:48:52.476Z,94.20
2019-04-23T02:51:30.865Z,94.20
2019-04-23T02:54:04.616Z,94.60
2019-04-23T02:56:37.525Z,94.40
2019-04-23T02:59:11.001Z,94.50
2019-04-23T03:01:57.936Z,94.50
2019-04-23T03:04:16.792Z,94.60
2019-04-23T03:06:55.551Z,94.70
2019-04-23T03:09:23.704Z,94.70
2019-04-23T03:14:27.164Z,95.00
2019-04-23T03:19:38.156Z,95.60
2019-04-23T03:30:16.689Z,95.80
2019-04-23T03:32:45.676Z,95.90
2019-04-23T03:38:08.265Z,96.20
2019-04-23T03:48:06.393Z,96.50
2019-04-23T03:50:45.293Z,96.50
2019-04-23T03:53:22.627Z,96.80
2019-04-23T03:56:02.345Z,96.90
2019-04-23T03:58:27.827Z,97.10
2019-04-23T04:04:01.567Z,97.10
2019-04-23T04:08:26.225Z,97.50
2019-04-23T04:11:11.377Z,97.60
2019-04-23T04:13:42.833Z,97.70
2019-04-23T04:21:29.783Z,97.80
2019-04-23T04:24:03.283Z,98.00
2019-04-23T04:29:01.706Z,98.00
2019-04-23T04:31:42.217Z,98.30
2019-04-23T04:36:45.929Z,98.10
2019-04-23T04:39:08.164Z,98.40
2019-04-23T04:41:54.859Z,98.60
2019-04-23T04:46:55.486Z,98.70
2019-04-23T04:54:29.081Z,98.40
2019-04-23T04:57:10.269Z,98.50
2019-04-23T05:05:09.208Z,98.60
2019-04-23T05:07:27.807Z,98.50
2019-04-23T05:10:05.870Z,98.70
2019-04-23T05:12:22.961Z,98.60
2019-04-23T05:17:59.340Z,98.30
2019-04-23T05:20:26.117Z,98.40
2019-04-23T05:23:06.176Z,98.60
2019-04-23T05:25:25.563Z,98.60
2019-04-23T05:28:08.348Z,98.30
2019-04-23T05:30:44.541Z,98.50
2019-04-23T05:33:13.340Z,98.10
2019-04-23T05:38:29.100Z,98.20
2019-04-23T05:41:10.108Z,98.20
2019-04-23T05:43:26.410Z,98.60
2019-04-23T05:46:02.178Z,98.30
2019-04-23T05:48:50.886Z,98.40
2019-04-23T05:51:10.901Z,98.00
2019-04-23T05:53:40.777Z,98.20
2019-04-23T05:56:09.471Z,97.90
2019-04-23T05:58:46.863Z,98.20
2019-04-23T06:01:42.373Z,98.30
2019-04-23T06:04:09.306Z,98.20
2019-04-23T06:06:37.806Z,98.90
2019-04-23T06:11:49.190Z,97.30
2019-04-23T06:14:14.330Z,97.50
2019-04-23T06:16:41.928Z,97.30
2019-04-23T06:19:51.384Z,97.00
2019-04-23T06:29:41.581Z,96.40
2019-04-23T06:32:14.932Z,96.50
2019-04-23T06:34:47.293Z,96.90
2019-04-23T06:39:55.041Z,95.70
2019-04-23T06:42:14.587Z,96.10
2019-04-23T06:44:51.080Z,96.70
2019-04-23T06:47:23.468Z,95.10
2019-04-23T06:49:55.584Z,95.20
2019-04-23T06:52:41.505Z,95.00
2019-04-23T06:57:31.790Z,94.80
2019-04-23T07:00:29.439Z,94.30
2019-04-23T07:02:44.251Z,93.90
2019-04-23T07:05:25.339Z,94.30
2019-04-23T07:07:50.295Z,93.20
2019-04-23T07:10:26.649Z,93.50
2019-04-23T07:12:58.745Z,93.70
2019-04-23T07:15:40.842Z,92.50
2019-04-23T07:18:04.107Z,92.50
2019-04-23T07:20:40.095Z,93.50
2019-04-23T07:23:13.456Z,91.20
2019-04-23T07:25:48.466Z,91.60
2019-04-23T07:28:21.434Z,92.40
2019-04-23T07:30:55.985Z,91.30
2019-04-23T07:33:27.920Z,92.10
2019-04-23T07:35:59.950Z,90.60
2019-04-23T07:38:49.575Z,88.60
2019-04-23T07:41:30.626Z,89.00
2019-04-23T07:44:12.900Z,91.20
2019-04-23T07:46:53.082Z,89.10
2019-04-23T07:49:15.875Z,87.70
2019-04-23T07:51:54.056Z,86.20
2019-04-23T07:54:22.721Z,88.10
2019-04-23T07:57:02.964Z,84.60
2019-04-23T07:59:35.053Z,85.90
2019-04-23T08:02:12.857Z,86.00
2019-04-23T08:04:42.511Z,84.50
2019-04-23T08:07:10.969Z,83.20
2019-04-23T08:14:56.611Z,82.10
2019-04-23T08:17:22.501Z,79.40
2019-04-23T08:20:00.742Z,76.90
2019-04-23T08:22:39.361Z,81.30
2019-04-23T08:25:26.443Z,80.90
2019-04-23T08:28:13.723Z,77.40
2019-04-23T08:30:45.488Z,78.50
2019-04-23T08:33:36.157Z,78.50
2019-04-23T08:35:51.431Z,73.80
2019-04-23T08:38:35.867Z,76.10
2019-04-23T08:41:04.204Z,77.10
2019-04-23T08:43:42.610Z,73.30
2019-04-23T08:46:14.061Z,70.80
2019-04-23T08:51:38.934Z,70.60
2019-04-23T08:53:57.134Z,70.80
2019-04-23T08:56:44.470Z,70.20
2019-04-23T08:59:15.611Z,70.30
2019-04-23T09:01:57.977Z,65.80
2019-04-23T09:04:17.975Z,69.20
2019-04-23T09:06:53.343Z,66.50
2019-04-23T09:09:29.095Z,67.40
2019-04-23T09:11:54.486Z,64.10
2019-04-23T09:14:27.710Z,65.40
2019-04-23T09:17:06.059Z,60.70
2019-04-23T09:19:56.276Z,63.80
2019-04-23T09:22:28.320Z,62.40
2019-04-23T09:24:51.378Z,64.70
2019-04-23T09:27:23.283Z,63.60
2019-04-23T09:35:20.880Z,61.70
2019-04-23T09:38:07.258Z,61.80
2019-04-23T09:41:11.507Z,60.20
2019-04-23T09:43:47.334Z,63.10
2019-04-23T09:46:38.062Z,57.90
2019-04-23T09:49:14.963Z,58.40
2019-04-23T09:51:46.913Z,61.20
2019-04-23T09:54:27.046Z,59.00
2019-04-23T09:57:04.000Z,60.60
2019-04-23T09:59:37.726Z,59.80
2019-04-23T10:01:52.883Z,63.00
2019-04-23T10:04:19.449Z,61.10
2019-04-23T10:06:55.339Z,62.40
2019-04-23T10:09:14.619Z,62.10
2019-04-23T10:11:49.179Z,64.80
2019-04-23T10:14:20.957Z,62.60
2019-04-23T10:16:53.345Z,61.00
2019-04-23T10:19:26.793Z,65.30
2019-04-23T10:21:59.774Z,60.10
2019-04-23T10:24:32.852Z,59.10
2019-04-23T10:27:06.069Z,62.90
2019-04-23T10:29:39.502Z,61.00
2019-04-23T10:32:11.597Z,62.00
2019-04-23T10:34:54.219Z,59.20
2019-04-23T10:37:30.448Z,64.10
2019-04-23T10:39:58.213Z,59.80
2019-04-23T10:42:26.510Z,60.70
2019-04-23T10:45:30.423Z,58.70
2019-04-23T10:49:22.210Z,59.40
2019-04-23T10:51:41.250Z,59.60
2019-04-23T10:54:16.534Z,59.90
2019-04-23T10:56:46.601Z,61.70
2019-04-23T10:59:37.268Z,62.00
2019-04-23T11:10:03.745Z,59.80
2019-04-23T11:13:12.175Z,59.50
2019-04-23T11:18:10.179Z,60.70
2019-04-23T11:20:49.315Z,62.20
2019-04-23T11:23:28.847Z,57.40
2019-04-23T11:26:07.165Z,57.00
2019-04-23T11:31:26.395Z,54.40
2019-04-23T11:33:59.582Z,54.30
2019-04-23T11:36:47.819Z,56.90
2019-04-23T11:39:00.454Z,57.10
2019-04-23T11:41:41.823Z,55.10
2019-04-23T11:44:13.278Z,54.90
2019-04-23T11:49:29.272Z,56.60
2019-04-23T11:54:20.507Z,54.50
2019-04-23T11:57:14.823Z,52.10
2019-04-23T12:02:13.599Z,53.80
2019-04-23T12:07:57.067Z,52.80
2019-04-23T12:11:24.172Z,53.80
2019-04-23T12:13:39.564Z,54.70
2019-04-23T12:16:02.182Z,54.50
2019-04-23T12:19:01.445Z,56.00
2019-04-23T12:21:15.702Z,56.60
2019-04-23T12:24:07.449Z,57.00
2019-04-23T12:26:33.872Z,55.30
2019-04-23T12:28:50.104Z,56.50
2019-04-23T12:31:26.689Z,55.60
2019-04-23T12:33:57.132Z,56.40
2019-04-23T12:36:47.888Z,57.20
2019-04-23T12:39:30.421Z,55.40
2019-04-23T12:42:08.611Z,55.90
2019-04-23T12:44:34.962Z,55.60
2019-04-23T12:47:18.806Z,55.80
2019-04-23T12:52:12.163Z,58.40
2019-04-23T12:57:17.214Z,56.80
2019-04-23T12:59:50.104Z,55.10
2019-04-23T13:02:35.266Z,55.20
2019-04-23T13:05:01.892Z,56.80
2019-04-23T13:07:38.121Z,57.10
2019-04-23T13:10:13.191Z,57.50
2019-04-23T13:12:47.393Z,59.10
2019-04-23T13:15:18.898Z,58.80
2019-04-23T13:20:23.641Z,56.00
2019-04-23T13:22:54.863Z,54.70
2019-04-23T13:25:55.824Z,56.10
2019-04-23T13:28:30.454Z,55.60
2019-04-23T13:30:59.045Z,57.40
2019-04-23T13:33:39.108Z,58.90
2019-04-23T13:38:41.849Z,57.70
2019-04-23T13:41:23.377Z,58.90
2019-04-23T13:46:18.033Z,58.30
2019-04-23T13:48:55.438Z,57.90
2019-04-23T13:53:59.327Z,58.60
2019-04-23T14:02:04.052Z,57.00
2019-04-23T14:04:47.772Z,57.40
2019-04-23T14:07:14.670Z,59.90
2019-04-23T14:12:17.658Z,61.00
2019-04-23T14:14:56.404Z,60.50
2019-04-23T14:17:36.222Z,60.50
2019-04-23T14:19:59.862Z,60.70
2019-04-23T14:25:08.272Z,61.60
2019-04-23T14:28:04.457Z,61.70
2019-04-23T14:32:46.939Z,62.40
2019-04-23T14:38:09.815Z,63.90
2019-04-23T14:40:35.743Z,63.60
2019-04-23T14:43:07.604Z,63.90
2019-04-23T14:45:52.578Z,66.80
2019-04-23T14:48:17.579Z,63.90
2019-04-23T14:50:51.252Z,64.50
2019-04-23T14:53:24.677Z,65.70
2019-04-23T14:56:06.245Z,64.90
2019-04-23T15:01:22.009Z,66.80
2019-04-23T15:13:54.007Z,65.60
2019-04-23T15:16:39.657Z,66.30
2019-04-23T15:19:38.096Z,66.10
2019-04-23T15:22:07.830Z,66.00
2019-04-23T15:27:58.612Z,65.00
2019-04-23T15:29:32.873Z,64.30
2019-04-23T15:32:34.452Z,66.10
2019-04-23T15:34:57.937Z,66.20
2019-04-23T15:37:41.383Z,66.00
2019-04-23T15:40:02.372Z,66.10
2019-04-23T15:45:05.849Z,66.30
2019-04-23T15:47:40.504Z,66.70
2019-04-23T15:55:12.204Z,68.90
2019-04-23T16:00:18.144Z,69.80
2019-04-23T16:02:26.660Z,68.80
2019-04-23T16:04:58.367Z,69.70
2019-04-23T16:07:48.219Z,68.70
2019-04-23T16:10:28.829Z,70.10
2019-04-23T16:13:27.574Z,70.30
2019-04-23T16:15:48.154Z,71.10
2019-04-23T16:18:28.401Z,71.10
2019-04-23T16:23:33.774Z,71.20
2019-04-23T16:26:03.248Z,71.60
2019-04-23T16:28:42.259Z,72.50
2019-04-23T16:31:19.024Z,73.50
2019-04-23T16:34:14.164Z,73.20
2019-04-23T16:46:55.831Z,74.40
2019-04-23T16:49:36.482Z,74.10
2019-04-23T16:52:03.629Z,75.00
2019-04-23T16:54:38.831Z,75.10
2019-04-23T16:57:26.390Z,75.10
2019-04-23T16:59:48.556Z,75.70
2019-04-23T17:02:34.217Z,75.50
2019-04-23T17:04:46.812Z,75.70
2019-04-23T17:07:13.222Z,76.10
2019-04-23T17:10:00.648Z,75.90
2019-04-23T17:12:17.492Z,76.90
2019-04-23T17:15:02.726Z,76.70
2019-04-23T17:17:30.906Z,77.20
2019-04-23T17:20:10.756Z,76.70
2019-04-23T17:22:39.211Z,77.40
2019-04-23T17:25:17.237Z,77.40
2019-04-23T17:30:19.596Z,77.60
2019-04-23T17:33:11.769Z,77.80
2019-04-23T17:35:40.285Z,77.90
2019-04-23T17:38:20.763Z,77.90
2019-04-23T17:41:00.046Z,78.00
2019-04-23T17:43:31.518Z,78.80
2019-04-23T17:46:05.274Z,78.60
2019-04-23T17:48:43.766Z,78.80
2019-04-23T17:51:17.765Z,78.10
2019-04-23T17:53:59.857Z,77.80
2019-04-23T17:58:58.912Z,78.40
2019-04-23T18:02:10.832Z,79.40
2019-04-23T18:04:10.591Z,79.70
2019-04-23T18:06:56.282Z,80.60
2019-04-23T18:09:27.800Z,81.40
2019-04-23T18:14:32.643Z,81.80
2019-04-23T18:16:55.982Z,81.80
2019-04-23T18:19:28.203Z,82.60
2019-04-23T18:22:29.906Z,83.20
2019-04-23T18:25:08.471Z,83.80
2019-04-23T18:27:58.258Z,84.40
2019-04-23T18:30:40.675Z,85.30
2019-04-23T18:33:43.770Z,85.70
2019-04-23T18:35:29.966Z,85.90
2019-04-23T18:38:18.628Z,86.30
2019-04-23T18:41:01.249Z,87.00
2019-04-23T18:43:29.844Z,87.90
2019-04-23T18:45:55.588Z,88.50
2019-04-23T18:53:48.414Z,89.80
2019-04-23T18:56:12.743Z,90.00
2019-04-23T18:58:54.414Z,90.00
2019-04-23T19:04:38.870Z,90.40
2019-04-23T19:06:44.159Z,90.60
2019-04-23T19:10:17.162Z,90.80
2019-04-23T19:12:41.404Z,91.00
2019-04-23T19:15:17.110Z,91.30
2019-04-23T19:20:26.117Z,91.60
2019-04-23T19:22:53.092Z,91.70
2019-04-23T19:25:22.272Z,91.90
2019-04-23T19:28:01.634Z,92.00
2019-04-23T19:36:05.043Z,92.30
2019-04-23T19:38:21.330Z,92.70
2019-04-23T19:43:33.441Z,92.70
2019-04-23T19:46:09.685Z,93.00
2019-04-23T19:48:43.595Z,93.30
2019-04-23T19:51:11.416Z,93.70
2019-04-23T20:01:21.009Z,94.60
2019-04-23T20:03:54.525Z,94.80
2019-04-23T20:06:52.064Z,95.00
2019-04-23T20:09:15.809Z,95.30
2019-04-23T20:11:42.303Z,95.90
2019-04-23T20:14:14.135Z,96.20
2019-04-23T20:16:59.714Z,96.00
2019-04-23T20:19:18.721Z,96.30
2019-04-23T20:22:08.477Z,96.30
2019-04-23T20:24:34.731Z,96.60
2019-04-23T20:27:06.203Z,96.60
2019-04-23T20:32:57.935Z,96.80
2019-04-23T20:37:47.986Z,97.30
2019-04-23T20:40:02.562Z,97.60
2019-04-23T20:42:37.113Z,97.90
2019-04-23T20:45:06.001Z,97.80
2019-04-23T20:47:48.633Z,98.00
2019-04-23T20:50:03.661Z,98.20
2019-04-23T20:52:46.637Z,98.00
2019-04-23T20:55:31.210Z,98.30
2019-04-23T20:58:13.933Z,98.40
2019-04-23T21:01:26.956Z,98.50
2019-04-23T21:03:46.642Z,98.60
2019-04-23T21:09:20.201Z,98.60
2019-04-23T21:11:28.671Z,98.80
2019-04-23T21:14:03.615Z,98.80
2019-04-23T21:16:32.753Z,98.90
2019-04-23T21:18:55.092Z,99.30
2019-04-23T21:21:51.202Z,99.10
2019-04-23T21:24:27.107Z,99.30
2019-04-23T21:26:44.193Z,99.60
2019-04-23T21:29:15.639Z,99.50
2019-04-23T21:32:05.448Z,99.40
2019-04-23T21:34:24.987Z,99.60
2019-04-23T21:37:11.084Z,99.30
2019-04-23T21:40:19.191Z,99.60
2019-04-23T21:42:55.881Z,99.90
2019-04-23T21:45:26.017Z,99.90
2019-04-23T21:50:44.288Z,99.90
2019-04-23T21:52:58.217Z,99.90
2019-04-23T21:55:47.275Z,99.90
2019-04-23T21:58:18.993Z,99.90
2019-04-23T22:00:54.997Z,99.90
2019-04-23T22:03:33.156Z,99.90
2019-04-23T22:06:01.708Z,99.90
2019-04-23T22:08:27.137Z,99.90
2019-04-23T22:11:25.209Z,99.90
2019-04-23T22:13:41.569Z,99.90
2019-04-23T22:16:15.311Z,99.90
2019-04-23T22:18:55.258Z,99.90
2019-04-23T22:21:14.415Z,99.90
2019-04-23T22:23:58.232Z,99.90
2019-04-23T22:26:36.242Z,99.90
2019-04-23T22:29:12.126Z,99.90
2019-04-23T22:34:17.123Z,99.90
2019-04-23T22:41:58.231Z,99.90
2019-04-23T22:44:10.901Z,99.90
2019-04-23T22:49:32.506Z,99.90
2019-04-23T22:52:18.779Z,99.90
2019-04-23T22:54:31.859Z,99.90
2019-04-23T22:57:04.904Z,99.90
2019-04-23T22:59:44.048Z,99.90
2019-04-23T23:02:41.280Z,99.90
2019-04-23T23:07:47.725Z,99.90
2019-04-23T23:10:12.826Z,99.90
2019-04-23T23:12:56.864Z,99.90
2019-04-23T23:15:26.617Z,99.90
2019-04-23T23:18:02.101Z,99.90
2019-04-23T23:23:05.595Z,99.90
2019-04-23T23:28:12.089Z,99.90
2019-04-23T23:30:53.558Z,99.90
2019-04-23T23:33:13.324Z,99.90
2019-04-23T23:35:51.469Z,99.90
2019-04-23T23:38:24.051Z,99.90
2019-04-23T23:40:57.197Z,99.90
2019-04-23T23:43:25.837Z,99.90
2019-04-23T23:46:04.887Z,99.90
2019-04-23T23:48:27.977Z,99.90
2019-04-23T23:51:12.010Z,99.90
